^^
LKKV - Karlovy Vary, Czech Republic
Entfernung von Station: O 36km
Aktualisierung: 19.11.2017 18:30

 Wind von WSW
Wind: WSW 24 km/h, Windböen: 44 km/h
Sicht: 10 km
2017/11/19 17:30 LKKV 191730Z 25013G24KT 220V280 9999 3700 -SN BKN008 OVC019 01/00 Q1011 R29///////
EDQM - Hof, Germany
Entfernung von Station: W 40km
Aktualisierung: 19.11.2017 17:50
stark bewölkt
stark bewölkt
 Wind von WSW
Wind: WSW 26 km/h
Temperatur: 2°C
Windkühle: -3°C
Taupunkt: 0°C
Luftfeuchte: 87%
Luftdruck: 1012 hPa
Wolken: stark bewölkt
Sicht: 10 km
Wolken Details: teils wolkig 274 m
stark bewölkt 457 m
stark bewölkt 1402 m
2017/11/19 16:50 EDQM 191650Z 25014KT 9999 FEW009 BKN015 BKN046 02/00 Q1012
 
ETIC - Grafenwoehr, Germany
Entfernung von Station: SSW 72km
Aktualisierung: 19.11.2017 18:56
Bedeckt
Bedeckt
 Wind von W
Wind: W 15 km/h
Temperatur: 3°C
Windkühle: -1°C
Taupunkt: 1°C
Luftfeuchte: 87%
Luftdruck: 1014.2 hPa
Wolken: Bedeckt
Sicht: 10 km
Wolken Details: wolkig 335 m
Bedeckt 1524 m
2017/11/19 17:56 ETIC 191756Z AUTO 26008KT 9999 SCT011 OVC050 03/01 A2995 RMK AO2 SLP163 60000 T00260013 10039 20026 52009 $
EDAC - Altenburg-Nobitz, Germany
Entfernung von Station: N 80km
Aktualisierung: 19.11.2017 16:20
nicht aktuell
leichter Regen, stark bewölkt
leichter Regen, stark bewölkt
 Wind von W
Wind: W 26 km/h
Temperatur: 6°C
Windkühle: 2°C
Taupunkt: 3°C
Luftfeuchte: 81%
Luftdruck: 1011 hPa
Zusammenfassung: Nieselregen
Wolken: stark bewölkt
Sicht: 10 km
Wolken Details: wolkig 671 m
stark bewölkt 914 m
2017/11/19 15:20 EDAC 191520Z 26014KT 9999 -RA SCT022 BKN030 06/03 Q1011
 
LKLN - Plzen Line, Czech Republic
Entfernung von Station: SO 88km
Aktualisierung: 16.11.2017 16:00
nicht aktuell
leichter Regen, Schneehöhe, teils wolkig
leichter Regen, Schneehöhe, teils wolkig
 Wind von SSW
Wind: SSW 9 km/h
Temperatur: 3°C
Windkühle: 0°C
Taupunkt: 0°C
Luftfeuchte: 81%
Luftdruck: 1023 hPa
Zusammenfassung: leichter Regen, Schneehöhe
Wolken: teils wolkig
Sicht: 10 km
Wolken Details: teils wolkig 579 m
2017/11/16 15:00 LKLN 161500Z AUTO 21005KT 9999 -RASN FEW019 03/00 Q1023
ETIH - Hohenfels (usa-A, Germany
Entfernung von Station: SSW 124km
Aktualisierung: 19.11.2017 18:57
leichter Regen, stark bewölkt
leichter Regen, stark bewölkt
 Wind von WSW
Wind: WSW 9 km/h, Windböen: 31 km/h
Temperatur: 3°C
Windkühle: 0°C
Taupunkt: 2°C
Luftfeuchte: 93%
Luftdruck: 1016.6 hPa
Zusammenfassung: Nieselregen
Wolken: stark bewölkt
Sicht: 10 km
Wolken Details: wolkig 518 m
wolkig 792 m
stark bewölkt 1067 m
2017/11/19 17:57 ETIH 191757Z AUTO 25005G17KT 9999 -RA SCT017 SCT026 BKN035 03/02 A3002 RMK AO2 SLP188 $
 
EDDE - Erfurt/Bindersleben, Germany
Entfernung von Station: NW 129km
Aktualisierung: 19.11.2017 18:50
teils wolkig
teils wolkig
 Wind von W
Wind: W 33 km/h
Temperatur: 4°C
Windkühle: -2°C
Taupunkt: 1°C
Luftfeuchte: 81%
Luftdruck: 1013 hPa
Wolken: teils wolkig
Sicht: 10 km
Wolken Details: teils wolkig 792 m
2017/11/19 17:50 EDDE 191750Z 27018KT 9999 FEW026 04/01 Q1013 TEMPO 26020G30KT
EDDP - Leipzig/Schkeudidtz, Germany
Entfernung von Station: N 129km
Aktualisierung: 19.11.2017 18:50
leichter Regen, Schauer, stark bewölkt
leichter Regen, Schauer, stark bewölkt
 Wind von W
Wind: W 33 km/h
Temperatur: 5°C
Windkühle: 0°C
Taupunkt: 3°C
Luftfeuchte: 87%
Luftdruck: 1010 hPa
Zusammenfassung: leichter Regen, Schauer
Wolken: stark bewölkt
Sicht: 10 km
Wolken Details: teils wolkig 366 m
stark bewölkt 671 m
2017/11/19 17:50 EDDP 191750Z 27018KT 9999 -SHRA FEW012CB BKN022 05/03 Q1010 TEMPO 27020G30KT SHRA
 
EDDN - Nuernberg, Germany
Entfernung von Station: SW 130km
Aktualisierung: 19.11.2017 18:50
leichter Regen, Schauer, stark bewölkt
leichter Regen, Schauer, stark bewölkt
 Wind von W
Wind: W 24 km/h
Temperatur: 5°C
Windkühle: 1°C
Taupunkt: 1°C
Luftfeuchte: 76%
Luftdruck: 1017 hPa
Zusammenfassung: leichter Regen, Schauer
Wolken: stark bewölkt
Sicht: 10 km
Wolken Details: teils wolkig 457 m
wolkig 701 m
stark bewölkt 1097 m
2017/11/19 17:50 EDDN 191750Z 26013KT 9999 -SHRA FEW015 SCT023 BKN036 05/01 Q1017 TEMPO 30015G25KT
LKPR - Prague/Ruzyne, Czech Republic
Entfernung von Station: O 133km
Aktualisierung: 19.11.2017 18:30
teils wolkig
teils wolkig
 Wind von WSW
Wind: WSW 35 km/h
Temperatur: 3°C
Windkühle: -3°C
Taupunkt: 0°C
Luftfeuchte: 81%
Luftdruck: 1010 hPa
Wolken: teils wolkig
Sicht: 10 km
Wolken Details: teils wolkig 1158 m
2017/11/19 17:30 LKPR 191730Z 25019KT 9999 FEW038 03/00 Q1010 NOSIG
 
EDDC - Dresden/Klotzsche, Germany
Entfernung von Station: NO 134km
Aktualisierung: 19.11.2017 18:50
Rain showers, stark bewölkt
Rain showers, stark bewölkt
 Wind von W
Wind: W 26 km/h
Temperatur: 4°C
Windkühle: -1°C
Taupunkt: 3°C
Luftfeuchte: 93%
Luftdruck: 1009 hPa
Zusammenfassung: Rain Showers
Wolken: stark bewölkt
Sicht: 7 km
Wolken Details: stark bewölkt 366 m
2017/11/19 17:50 EDDC 191750Z 27014KT 230V310 7000 SHRA BKN012CB 04/03 Q1009 TEMPO 30015G25KT 4000 SHRAGS
Besucherstatistik
Besucher gesamt: 839.818
Besucher heute: 1.190
Besucher gestern: 1.301
Besucher pro Tag: 915,81
gerade online: 23
max. online: 156
Seitenaufrufe diese Seite: 2.834
counter Statistiken